Archival Weather

Heathrow

London, United Kingdom (EGLL)

Report from: Friday, September 23, 2022 9:20 AM BST
Current time: Tuesday, July 16, 2024 4:42 PM BST

Current weather – Weather history – Daily summaries
Weather forecast

Temperature15.0°C (59.0°F)
Dew point14.0°C (57.2°F)
Winds 5 kts (2.6 m/s, 5.8 mph) Vrb
Winds variableWinds variable from West-Northwest (300°) to North-Northeast (30°)
Visibility6.2 mi. (10 km)
Clouds Ceiling: Broken clouds 1,000 ft. (305 m)
Overcast 1,600 ft. (488 m)
Broken clouds 1,600 ft. (488 m)
Altimeter29.97 in.Hg (1015 mB)
Relative humidity94 %
Density altitude162 ft. (49 m)
Remarks Fully automated report
Corrected report
Flight conditions Marginal Visual Meteorological Conditions
Raw dataCOR EGLL 230820Z AUTO 36005KT 300V030 9999 BKN010 OVC016 15/14 Q1015 BECMG BKN016
An error has occurred. This application may no longer respond until reloaded. Reload 🗙